createdAt,value
2023-03-26T00:01:13.891Z,5.53
2023-03-26T00:03:44.938Z,2.75
2023-03-26T00:06:14.561Z,3.53
2023-03-26T00:08:44.935Z,3.67
2023-03-26T00:11:16.002Z,2.42
2023-03-26T00:13:44.976Z,2.63
2023-03-26T00:16:13.933Z,4.00
2023-03-26T00:18:42.583Z,2.63
2023-03-26T00:21:14.566Z,3.33
2023-03-26T00:23:43.083Z,4.20
2023-03-26T00:26:12.883Z,3.60
2023-03-26T00:28:43.501Z,3.03
2023-03-26T00:31:13.817Z,2.03
2023-03-26T00:33:43.047Z,5.45
2023-03-26T00:36:17.739Z,4.53
2023-03-26T00:38:47.930Z,2.08
2023-03-26T00:41:22.995Z,3.53
2023-03-26T00:43:56.594Z,4.28
2023-03-26T00:46:25.756Z,2.67
2023-03-26T00:48:54.683Z,1.60
2023-03-26T00:51:23.520Z,3.33
2023-03-26T00:53:52.252Z,2.22
2023-03-26T00:56:21.073Z,5.45
2023-03-26T00:58:50.374Z,2.58
2023-03-26T01:01:28.462Z,2.17
2023-03-26T01:04:07.424Z,1.95
2023-03-26T01:06:42.090Z,2.60
2023-03-26T01:09:15.971Z,2.85
2023-03-26T01:11:44.914Z,3.92
2023-03-26T01:14:16.744Z,2.17
2023-03-26T01:16:52.093Z,3.13
2023-03-26T01:19:26.867Z,2.42
2023-03-26T01:21:55.068Z,6.80
2023-03-26T01:24:24.648Z,2.17
2023-03-26T01:27:10.910Z,3.08
2023-03-26T01:29:45.261Z,0.68
2023-03-26T01:32:32.886Z,0.95
2023-03-26T01:35:14.075Z,2.45
2023-03-26T01:37:52.747Z,2.22
2023-03-26T01:40:29.179Z,2.88
2023-03-26T01:43:05.804Z,1.67
2023-03-26T01:45:39.270Z,3.28
2023-03-26T01:48:08.089Z,2.80
2023-03-26T01:50:36.794Z,1.35
2023-03-26T01:53:05.678Z,1.20
2023-03-26T01:55:49.428Z,1.92
2023-03-26T01:58:24.199Z,0.88
2023-03-26T02:01:04.062Z,1.25
2023-03-26T02:03:35.647Z,1.88
2023-03-26T02:06:11.236Z,1.92
2023-03-26T02:08:42.446Z,1.13
2023-03-26T02:11:16.485Z,1.98
2023-03-26T02:13:47.245Z,1.60
2023-03-26T02:16:17.344Z,1.58
2023-03-26T02:18:47.388Z,2.65
2023-03-26T02:21:20.274Z,2.90
2023-03-26T02:23:50.772Z,2.28
2023-03-26T02:26:21.291Z,3.08
2023-03-26T02:29:01.570Z,2.13
2023-03-26T02:31:30.339Z,2.35
2023-03-26T02:33:58.969Z,2.50
2023-03-26T02:36:29.991Z,3.28
2023-03-26T02:39:01.719Z,1.58
2023-03-26T02:41:34.618Z,1.80
2023-03-26T02:44:07.394Z,3.03
2023-03-26T02:46:54.210Z,1.60
2023-03-26T02:49:41.172Z,2.50
2023-03-26T02:52:11.558Z,3.10
2023-03-26T02:54:39.918Z,1.50
2023-03-26T02:57:38.512Z,1.63
2023-03-26T03:00:33.622Z,1.77
2023-03-26T03:03:24.228Z,3.90
2023-03-26T03:06:01.402Z,4.00
2023-03-26T03:08:38.361Z,3.20
2023-03-26T03:11:35.957Z,1.60
2023-03-26T03:14:05.705Z,3.58
2023-03-26T03:16:35.010Z,1.42
2023-03-26T03:19:09.777Z,8.38
2023-03-26T03:21:43.051Z,3.70
2023-03-26T03:24:13.851Z,2.67
2023-03-26T03:26:47.561Z,1.52
2023-03-26T03:29:46.638Z,1.73
2023-03-26T03:32:33.595Z,2.22
2023-03-26T03:35:05.920Z,2.40
2023-03-26T03:37:36.520Z,2.15
2023-03-26T03:40:10.710Z,2.63
2023-03-26T03:42:40.152Z,2.28
2023-03-26T03:45:12.131Z,4.68
2023-03-26T03:47:55.705Z,2.35
2023-03-26T03:50:33.024Z,4.20
2023-03-26T03:53:25.914Z,2.70
2023-03-26T03:55:57.549Z,2.17
2023-03-26T03:58:36.653Z,1.98
2023-03-26T04:01:15.155Z,2.13
2023-03-26T04:04:03.725Z,4.20
2023-03-26T04:06:58.290Z,4.32
2023-03-26T04:09:31.297Z,4.13
2023-03-26T04:12:04.102Z,1.73
2023-03-26T04:14:40.747Z,3.65
2023-03-26T04:17:18.264Z,1.50
2023-03-26T04:19:48.232Z,2.67
2023-03-26T04:22:19.292Z,3.30
2023-03-26T04:24:56.290Z,1.40
2023-03-26T04:27:58.310Z,3.33
2023-03-26T04:30:54.431Z,3.78
2023-03-26T04:33:36.841Z,2.08
2023-03-26T04:36:07.228Z,1.73
2023-03-26T04:38:42.412Z,1.92
2023-03-26T04:41:14.073Z,3.20
2023-03-26T04:44:08.805Z,2.63
2023-03-26T04:47:03.111Z,2.17
2023-03-26T04:49:38.197Z,2.00
2023-03-26T04:52:06.762Z,2.13
2023-03-26T04:54:53.570Z,1.88
2023-03-26T04:57:28.716Z,3.05
2023-03-26T05:00:23.304Z,1.95
2023-03-26T05:02:59.761Z,1.60
2023-03-26T05:05:30.519Z,6.00
2023-03-26T05:08:00.619Z,1.48
2023-03-26T05:10:29.028Z,3.53
2023-03-26T05:13:12.529Z,4.13
2023-03-26T05:15:46.470Z,3.20
2023-03-26T05:18:21.769Z,2.08
2023-03-26T05:20:56.009Z,3.42
2023-03-26T05:23:24.971Z,1.98
2023-03-26T05:26:10.072Z,1.15
2023-03-26T05:28:38.402Z,2.83
2023-03-26T05:31:32.858Z,1.88
2023-03-26T05:34:03.266Z,2.83
2023-03-26T05:36:32.856Z,4.00
2023-03-26T05:39:30.332Z,1.83
2023-03-26T05:42:13.566Z,2.47
2023-03-26T05:45:00.051Z,1.83
2023-03-26T05:47:31.101Z,1.10
2023-03-26T05:49:59.452Z,1.77
2023-03-26T05:52:29.749Z,2.75
2023-03-26T05:55:18.373Z,2.40
2023-03-26T05:58:04.910Z,1.25
2023-03-26T06:01:17.094Z,2.50
2023-03-26T06:04:05.534Z,0.98
2023-03-26T06:06:39.973Z,5.07
2023-03-26T06:09:09.627Z,1.83
2023-03-26T06:11:38.056Z,0.95
2023-03-26T06:14:07.892Z,2.30
2023-03-26T06:16:39.288Z,3.08
2023-03-26T06:19:17.479Z,2.45
2023-03-26T06:21:51.613Z,2.75
2023-03-26T06:24:24.823Z,1.75
2023-03-26T06:27:08.222Z,1.75
2023-03-26T06:30:14.871Z,6.57
2023-03-26T06:32:55.103Z,0.30
2023-03-26T06:35:26.972Z,1.58
2023-03-26T06:37:55.273Z,3.97
2023-03-26T06:40:25.431Z,1.70
2023-03-26T06:43:20.253Z,1.27
2023-03-26T06:45:52.139Z,0.88
2023-03-26T06:48:38.858Z,0.13
2023-03-26T06:51:21.896Z,0.68
2023-03-26T06:54:13.097Z,1.80
2023-03-26T06:56:58.933Z,0.52
2023-03-26T06:59:42.275Z,2.28
2023-03-26T07:02:29.480Z,3.10
2023-03-26T07:05:16.215Z,0.65
2023-03-26T07:08:17.071Z,2.05
2023-03-26T07:11:03.768Z,1.42
2023-03-26T07:13:51.894Z,1.30
2023-03-26T07:16:52.099Z,0.68
2023-03-26T07:19:48.842Z,1.85
2023-03-26T07:22:22.623Z,0.90
2023-03-26T07:25:07.300Z,0.75
2023-03-26T07:28:06.653Z,0.82
2023-03-26T07:31:11.954Z,0.85
2023-03-26T07:33:55.822Z,1.23
2023-03-26T07:36:46.745Z,2.22
2023-03-26T07:39:44.932Z,5.63
2023-03-26T07:42:34.987Z,1.75
2023-03-26T07:45:42.308Z,0.88
2023-03-26T07:48:25.356Z,1.08
2023-03-26T07:51:10.075Z,1.13
2023-03-26T07:54:00.463Z,2.25
2023-03-26T07:57:14.828Z,0.40
2023-03-26T07:59:55.346Z,0.75
2023-03-26T08:03:25.968Z,2.05
2023-03-26T08:06:29.113Z,1.42
2023-03-26T08:09:16.782Z,1.75
2023-03-26T08:11:57.966Z,0.82
2023-03-26T08:14:41.959Z,0.93
2023-03-26T08:17:14.635Z,1.92
2023-03-26T08:19:57.902Z,0.70
2023-03-26T08:22:30.915Z,1.48
2023-03-26T08:25:11.913Z,2.75
2023-03-26T08:27:43.274Z,0.20
2023-03-26T08:30:18.343Z,0.20
2023-03-26T08:32:53.681Z,1.75
2023-03-26T08:35:21.894Z,2.97
2023-03-26T08:37:51.825Z,0.50
2023-03-26T08:40:36.842Z,0.30
2023-03-26T08:43:38.563Z,2.70
2023-03-26T08:46:34.389Z,3.05
2023-03-26T08:49:40.456Z,0.93
2023-03-26T08:53:03.352Z,0.47
2023-03-26T08:55:44.809Z,1.23
2023-03-26T08:58:50.627Z,1.15
2023-03-26T09:01:52.849Z,0.90
2023-03-26T09:04:53.937Z,0.28
2023-03-26T09:07:58.112Z,1.95
2023-03-26T09:11:00.267Z,0.40
2023-03-26T09:14:19.340Z,1.52
2023-03-26T09:17:09.595Z,2.22
2023-03-26T09:20:15.402Z,0.82
2023-03-26T09:23:09.470Z,1.67
2023-03-26T09:26:04.956Z,1.70
2023-03-26T09:29:16.989Z,1.00
2023-03-26T09:32:38.055Z,0.43
2023-03-26T09:35:19.039Z,0.77
2023-03-26T09:37:58.375Z,0.60
2023-03-26T09:40:38.175Z,0.88
2023-03-26T09:43:42.326Z,1.83
2023-03-26T09:46:28.137Z,1.73
2023-03-26T09:49:17.315Z,0.68
2023-03-26T09:52:08.077Z,4.68
2023-03-26T09:55:15.462Z,0.77
2023-03-26T09:58:17.341Z,1.70
2023-03-26T10:00:53.198Z,1.95
2023-03-26T10:03:40.838Z,0.60
2023-03-26T10:06:22.663Z,1.08
2023-03-26T10:09:06.872Z,0.98
2023-03-26T10:11:55.574Z,1.67
2023-03-26T10:14:29.148Z,0.93
2023-03-26T10:17:11.269Z,1.85
2023-03-26T10:19:53.847Z,0.70
2023-03-26T10:22:37.796Z,1.52
2023-03-26T10:25:37.251Z,2.95
2023-03-26T10:28:22.500Z,1.58
2023-03-26T10:31:24.971Z,6.35
2023-03-26T10:34:05.981Z,2.35
2023-03-26T10:36:36.936Z,1.35
2023-03-26T10:39:37.359Z,1.95
2023-03-26T10:42:34.023Z,2.25
2023-03-26T10:45:15.673Z,1.33
2023-03-26T10:48:15.061Z,4.82
2023-03-26T10:50:58.667Z,1.70
2023-03-26T10:53:33.470Z,3.40
2023-03-26T10:56:10.749Z,2.20
2023-03-26T10:58:49.257Z,1.08
2023-03-26T11:01:29.679Z,1.95
2023-03-26T11:04:05.525Z,0.65
2023-03-26T11:06:41.862Z,3.70
2023-03-26T11:09:24.895Z,1.60
2023-03-26T11:12:00.742Z,1.92
2023-03-26T11:14:35.386Z,3.50
2023-03-26T11:17:14.962Z,1.48
2023-03-26T11:20:08.514Z,2.42
2023-03-26T11:22:49.219Z,4.32
2023-03-26T11:25:46.156Z,2.72
2023-03-26T11:28:28.934Z,3.95
2023-03-26T11:31:02.347Z,1.40
2023-03-26T11:33:36.619Z,1.63
2023-03-26T11:36:08.256Z,3.20
2023-03-26T11:38:43.534Z,5.18
2023-03-26T11:41:22.874Z,5.38
2023-03-26T11:44:21.689Z,5.75
2023-03-26T11:46:53.571Z,5.40
2023-03-26T11:49:23.963Z,13.48
2023-03-26T11:51:52.334Z,9.98
2023-03-26T11:54:24.952Z,4.97
2023-03-26T11:57:04.935Z,5.05
2023-03-26T11:59:48.926Z,10.73
2023-03-26T12:02:34.183Z,18.23
2023-03-26T12:05:16.148Z,10.40
2023-03-26T12:07:47.655Z,7.80
2023-03-26T12:10:26.955Z,7.28
2023-03-26T12:13:00.156Z,11.05
2023-03-26T12:15:30.780Z,8.55
2023-03-26T12:18:00.338Z,7.53
2023-03-26T12:20:36.003Z,4.47
2023-03-26T12:23:06.614Z,3.70
2023-03-26T12:25:38.679Z,4.22
2023-03-26T12:28:18.845Z,1.00
2023-03-26T12:30:54.885Z,3.28
2023-03-26T12:33:27.931Z,2.33
2023-03-26T12:36:00.585Z,2.63
2023-03-26T12:38:35.453Z,1.55
2023-03-26T12:44:42.159Z,1.90
2023-03-26T12:44:51.260Z,2.00
2023-03-26T12:47:56.501Z,6.82
2023-03-26T12:49:36.495Z,0.57
2023-03-26T12:52:17.029Z,2.00
2023-03-26T12:54:50.288Z,6.18
2023-03-26T12:57:25.270Z,1.92
2023-03-26T13:00:23.297Z,5.65
2023-03-26T13:03:09.482Z,8.25
2023-03-26T13:05:55.512Z,3.22
2023-03-26T13:08:53.384Z,1.00
2023-03-26T13:11:31.029Z,4.22
2023-03-26T13:14:20.797Z,3.22
2023-03-26T13:16:56.520Z,1.42
2023-03-26T13:19:31.352Z,2.17
2023-03-26T13:22:14.662Z,2.85
2023-03-26T13:24:50.012Z,3.72
2023-03-26T13:27:37.956Z,1.50
2023-03-26T13:30:20.817Z,1.65
2023-03-26T13:33:05.811Z,3.25
2023-03-26T13:35:40.631Z,5.53
2023-03-26T13:38:14.907Z,0.88
2023-03-26T13:40:58.321Z,1.67
2023-03-26T13:43:38.238Z,1.25
2023-03-26T13:46:19.792Z,4.60
2023-03-26T13:48:53.910Z,2.08
2023-03-26T13:51:27.484Z,5.40
2023-03-26T13:54:01.592Z,0.68
2023-03-26T13:56:34.763Z,9.68
2023-03-26T13:59:10.395Z,2.22
2023-03-26T14:01:51.173Z,1.02
2023-03-26T14:04:26.912Z,2.60
2023-03-26T14:07:02.466Z,1.65
2023-03-26T14:09:34.246Z,0.70
2023-03-26T14:12:25.985Z,0.93
2023-03-26T14:14:59.584Z,2.65
2023-03-26T14:17:36.388Z,0.93
2023-03-26T14:20:27.416Z,0.77
2023-03-26T14:23:04.839Z,0.60
2023-03-26T14:25:50.217Z,0.55
2023-03-26T14:28:43.289Z,0.75
2023-03-26T14:31:21.213Z,0.50
2023-03-26T14:34:03.131Z,1.65
2023-03-26T14:36:51.457Z,0.40
2023-03-26T14:40:15.109Z,0.93
2023-03-26T14:42:46.380Z,3.47
2023-03-26T14:45:46.461Z,0.77
2023-03-26T14:48:48.087Z,1.90
2023-03-26T14:51:29.967Z,4.03
2023-03-26T14:54:02.312Z,3.42
2023-03-26T14:56:53.222Z,5.75
2023-03-26T14:59:55.490Z,1.98
2023-03-26T15:02:57.208Z,2.17
2023-03-26T15:06:00.320Z,2.22
2023-03-26T15:09:28.393Z,2.35
2023-03-26T15:12:12.110Z,2.35
2023-03-26T15:15:12.766Z,7.88
2023-03-26T15:18:10.371Z,4.35
2023-03-26T15:21:43.010Z,1.55
2023-03-26T15:24:36.418Z,1.42
2023-03-26T15:27:25.483Z,1.90
2023-03-26T15:30:30.180Z,11.38
2023-03-26T15:34:01.637Z,1.83
2023-03-26T15:37:12.003Z,2.72
2023-03-26T15:39:59.528Z,2.00
2023-03-26T15:42:41.057Z,0.98
2023-03-26T15:45:36.971Z,1.08
2023-03-26T15:48:36.968Z,1.42
2023-03-26T15:51:23.492Z,1.60
2023-03-26T15:53:58.805Z,1.35
2023-03-26T15:56:55.954Z,4.43
2023-03-26T15:59:38.242Z,2.65
2023-03-26T16:02:17.554Z,1.58
2023-03-26T16:04:52.338Z,1.48
2023-03-26T16:07:47.882Z,1.58
2023-03-26T16:10:29.237Z,1.25
2023-03-26T16:13:31.781Z,1.48
2023-03-26T16:16:27.004Z,1.42
2023-03-26T16:18:59.451Z,1.90
2023-03-26T16:21:42.270Z,1.77
2023-03-26T16:24:21.952Z,2.47
2023-03-26T16:27:03.149Z,1.83
2023-03-26T16:29:34.258Z,3.42
2023-03-26T16:32:26.009Z,2.47
2023-03-26T16:34:57.998Z,2.38
2023-03-26T16:37:38.526Z,2.15
2023-03-26T16:40:29.908Z,1.40
2023-03-26T16:43:11.170Z,2.35
2023-03-26T16:45:51.246Z,2.30
2023-03-26T16:48:27.453Z,3.53
2023-03-26T16:51:04.525Z,5.63
2023-03-26T16:53:42.671Z,2.75
2023-03-26T16:56:17.784Z,5.22
2023-03-26T16:58:55.862Z,5.30
2023-03-26T17:01:35.768Z,13.35
2023-03-26T17:04:07.700Z,17.42
2023-03-26T17:07:01.865Z,11.38
2023-03-26T17:09:52.777Z,13.10
2023-03-26T17:12:29.604Z,12.18
2023-03-26T17:15:08.231Z,9.52
2023-03-26T17:17:52.452Z,16.27
2023-03-26T17:20:36.708Z,14.98
2023-03-26T17:23:26.470Z,16.48
2023-03-26T17:26:03.857Z,19.15
2023-03-26T17:28:53.521Z,23.48
2023-03-26T17:31:28.296Z,29.25
2023-03-26T17:34:35.382Z,21.80
2023-03-26T17:37:06.094Z,17.10
2023-03-26T17:40:09.206Z,18.30
2023-03-26T17:42:37.587Z,26.58
2023-03-26T17:45:10.197Z,26.17
2023-03-26T17:47:41.703Z,17.75
2023-03-26T17:50:17.153Z,15.75
2023-03-26T17:52:57.879Z,13.80
2023-03-26T17:55:30.955Z,12.80
2023-03-26T17:58:03.895Z,7.20
2023-03-26T18:00:38.425Z,10.40
2023-03-26T18:03:17.179Z,5.80
2023-03-26T18:05:49.054Z,6.05
2023-03-26T18:08:51.505Z,6.60
2023-03-26T18:11:58.913Z,7.65
2023-03-26T18:14:52.340Z,8.30
2023-03-26T18:17:21.087Z,8.40
2023-03-26T18:19:51.545Z,9.18
2023-03-26T18:22:24.562Z,7.90
2023-03-26T18:24:55.332Z,11.48
2023-03-26T18:27:24.446Z,9.82
2023-03-26T18:30:16.011Z,10.07
2023-03-26T18:33:00.694Z,9.25
2023-03-26T18:35:37.106Z,9.32
2023-03-26T18:38:07.014Z,11.23
2023-03-26T18:40:41.927Z,8.73
2023-03-26T18:43:25.351Z,12.73
2023-03-26T18:46:02.787Z,15.13
2023-03-26T18:48:31.112Z,10.48
2023-03-26T18:51:05.144Z,11.93
2023-03-26T18:53:40.223Z,8.48
2023-03-26T18:56:31.328Z,7.28
2023-03-26T18:59:01.426Z,5.97
2023-03-26T19:01:31.646Z,2.95
2023-03-26T19:04:03.763Z,2.88
2023-03-26T19:06:35.791Z,4.25
2023-03-26T19:09:16.271Z,3.20
2023-03-26T19:11:57.012Z,4.63
2023-03-26T19:14:28.492Z,1.27
2023-03-26T19:17:00.850Z,3.30
2023-03-26T19:19:32.534Z,7.35
2023-03-26T19:22:01.181Z,3.88
2023-03-26T19:24:30.930Z,6.00
2023-03-26T19:27:02.590Z,7.18
2023-03-26T19:29:33.895Z,7.65
2023-03-26T19:32:06.740Z,10.00
2023-03-26T19:34:37.284Z,12.07
2023-03-26T19:37:21.906Z,9.45
2023-03-26T19:39:53.973Z,8.05
2023-03-26T19:42:27.132Z,6.57
2023-03-26T19:45:17.756Z,5.45
2023-03-26T19:47:52.095Z,8.60
2023-03-26T19:50:26.617Z,6.20
2023-03-26T19:53:18.853Z,12.18
2023-03-26T19:55:57.379Z,8.57
2023-03-26T19:58:27.215Z,12.75
2023-03-26T20:00:56.979Z,11.20
2023-03-26T20:03:29.582Z,10.30
2023-03-26T20:05:58.096Z,14.73
2023-03-26T20:08:27.927Z,13.00
2023-03-26T20:10:58.817Z,10.90
2023-03-26T20:13:27.537Z,12.38
2023-03-26T20:16:05.595Z,9.23
2023-03-26T20:18:35.116Z,7.57
2023-03-26T20:21:03.571Z,5.72
2023-03-26T20:23:31.740Z,6.05
2023-03-26T20:26:01.330Z,6.25
2023-03-26T20:28:30.438Z,6.20
2023-03-26T20:31:01.133Z,17.65
2023-03-26T20:33:29.387Z,8.82
2023-03-26T20:35:58.921Z,9.25
2023-03-26T20:38:39.216Z,7.88
2023-03-26T20:41:12.869Z,6.68
2023-03-26T20:43:43.772Z,2.63
2023-03-26T20:46:16.995Z,12.10
2023-03-26T20:48:45.510Z,7.68
2023-03-26T20:51:15.018Z,3.05
2023-03-26T20:53:44.019Z,2.42
2023-03-26T20:56:15.795Z,1.52
2023-03-26T20:58:47.850Z,2.13
2023-03-26T21:01:20.577Z,1.23
2023-03-26T21:03:50.643Z,1.77
2023-03-26T21:06:19.914Z,1.30
2023-03-26T21:08:48.755Z,2.63
2023-03-26T21:11:26.870Z,2.97
2023-03-26T21:14:01.031Z,2.22
2023-03-26T21:16:29.825Z,2.90
2023-03-26T21:18:58.994Z,1.80
2023-03-26T21:21:38.901Z,1.45
2023-03-26T21:24:14.638Z,3.88
2023-03-26T21:26:50.686Z,2.75
2023-03-26T21:29:19.199Z,2.08
2023-03-26T21:31:48.128Z,2.45
2023-03-26T21:34:17.087Z,2.03
2023-03-26T21:36:46.586Z,2.10
2023-03-26T21:39:15.328Z,4.50
2023-03-26T21:42:04.711Z,1.10
2023-03-26T21:44:35.038Z,3.40
2023-03-26T21:47:04.385Z,2.95
2023-03-26T21:49:33.220Z,4.43
2023-03-26T21:52:01.884Z,2.20
2023-03-26T21:54:31.944Z,4.15
2023-03-26T21:57:22.778Z,2.15
2023-03-26T22:00:07.872Z,2.08
2023-03-26T22:02:56.214Z,3.40
2023-03-26T22:05:31.102Z,5.57
2023-03-26T22:08:03.984Z,6.85
2023-03-26T22:10:32.829Z,3.22
2023-03-26T22:13:02.365Z,2.45
2023-03-26T22:15:31.435Z,3.35
2023-03-26T22:18:03.546Z,2.65
2023-03-26T22:20:32.075Z,2.83
2023-03-26T22:23:03.188Z,2.75
2023-03-26T22:25:31.366Z,4.50
2023-03-26T22:27:59.561Z,7.47
2023-03-26T22:30:29.202Z,3.83
2023-03-26T22:32:58.740Z,24.70
2023-03-26T22:35:27.684Z,45.72
2023-03-26T22:38:00.880Z,52.50
2023-03-26T22:40:29.635Z,8.90
2023-03-26T22:42:58.201Z,8.93
2023-03-26T22:45:27.865Z,4.07
2023-03-26T22:48:03.875Z,10.63
2023-03-26T22:50:32.876Z,5.97
2023-03-26T22:53:01.227Z,12.93
2023-03-26T22:55:29.994Z,11.55
2023-03-26T22:58:00.409Z,16.27
2023-03-26T23:00:30.676Z,21.23
2023-03-26T23:03:00.542Z,11.18
2023-03-26T23:05:29.335Z,9.05
2023-03-26T23:07:58.269Z,10.20
2023-03-26T23:10:26.505Z,15.13
2023-03-26T23:12:54.699Z,12.75
2023-03-26T23:15:25.809Z,13.93
2023-03-26T23:17:55.463Z,8.88
2023-03-26T23:20:23.706Z,7.32
2023-03-26T23:22:52.514Z,6.78
2023-03-26T23:25:20.982Z,16.60
2023-03-26T23:27:50.545Z,12.25
2023-03-26T23:30:19.169Z,9.52
2023-03-26T23:32:47.554Z,8.80
2023-03-26T23:35:17.482Z,6.65
2023-03-26T23:37:45.803Z,10.23
2023-03-26T23:40:14.604Z,6.70
2023-03-26T23:42:42.912Z,5.50
2023-03-26T23:45:12.242Z,8.95
2023-03-26T23:47:42.126Z,7.35
2023-03-26T23:50:11.558Z,8.57
2023-03-26T23:52:41.211Z,10.68
2023-03-26T23:55:10.004Z,11.70
2023-03-26T23:57:38.286Z,11.48
